sensor_id;sensor_type;location;lat;lon;timestamp;P1;durP1;ratioP1;P2;durP2;ratioP2
34711;SDS011;20941;42.408;25.634;2023-05-07T00:00:35;13.80;;;6.57;;
34711;SDS011;20941;42.408;25.634;2023-05-07T00:03:00;9.32;;;6.70;;
34711;SDS011;20941;42.408;25.634;2023-05-07T00:05:26;11.65;;;6.80;;
34711;SDS011;20941;42.408;25.634;2023-05-07T00:07:51;11.15;;;6.85;;
34711;SDS011;20941;42.408;25.634;2023-05-07T00:10:18;13.77;;;6.75;;
34711;SDS011;20941;42.408;25.634;2023-05-07T00:12:43;13.07;;;6.28;;
34711;SDS011;20941;42.408;25.634;2023-05-07T00:15:09;11.85;;;6.38;;
34711;SDS011;20941;42.408;25.634;2023-05-07T00:17:34;9.73;;;6.25;;
34711;SDS011;20941;42.408;25.634;2023-05-07T00:20:00;11.68;;;6.80;;
34711;SDS011;20941;42.408;25.634;2023-05-07T00:22:25;11.00;;;6.20;;
34711;SDS011;20941;42.408;25.634;2023-05-07T00:24:51;13.00;;;6.70;;
34711;SDS011;20941;42.408;25.634;2023-05-07T00:27:17;12.45;;;7.05;;
34711;SDS011;20941;42.408;25.634;2023-05-07T00:29:48;13.23;;;7.30;;
34711;SDS011;20941;42.408;25.634;2023-05-07T00:32:13;11.10;;;7.32;;
34711;SDS011;20941;42.408;25.634;2023-05-07T00:34:39;13.13;;;7.18;;
34711;SDS011;20941;42.408;25.634;2023-05-07T00:37:06;10.80;;;7.25;;
34711;SDS011;20941;42.408;25.634;2023-05-07T00:39:34;12.18;;;6.78;;
34711;SDS011;20941;42.408;25.634;2023-05-07T00:42:00;13.55;;;6.43;;
34711;SDS011;20941;42.408;25.634;2023-05-07T00:44:25;10.77;;;6.10;;
34711;SDS011;20941;42.408;25.634;2023-05-07T00:46:51;9.27;;;5.63;;
34711;SDS011;20941;42.408;25.634;2023-05-07T00:49:16;10.35;;;6.22;;
34711;SDS011;20941;42.408;25.634;2023-05-07T00:51:43;8.63;;;5.75;;
34711;SDS011;20941;42.408;25.634;2023-05-07T00:54:09;11.02;;;6.95;;
34711;SDS011;20941;42.408;25.634;2023-05-07T00:56:34;11.98;;;6.43;;
34711;SDS011;20941;42.408;25.634;2023-05-07T00:59:01;9.75;;;5.65;;
34711;SDS011;20941;42.408;25.634;2023-05-07T01:01:26;10.50;;;5.63;;
34711;SDS011;20941;42.408;25.634;2023-05-07T01:03:52;7.97;;;5.07;;
34711;SDS011;20941;42.408;25.634;2023-05-07T01:06:17;7.97;;;5.25;;
34711;SDS011;20941;42.408;25.634;2023-05-07T01:08:43;8.25;;;5.30;;
34711;SDS011;20941;42.408;25.634;2023-05-07T01:11:09;6.60;;;5.25;;
34711;SDS011;20941;42.408;25.634;2023-05-07T01:13:35;12.02;;;5.18;;
34711;SDS011;20941;42.408;25.634;2023-05-07T01:16:02;11.75;;;5.32;;
34711;SDS011;20941;42.408;25.634;2023-05-07T01:18:28;8.23;;;5.43;;
34711;SDS011;20941;42.408;25.634;2023-05-07T01:20:55;8.38;;;6.05;;
34711;SDS011;20941;42.408;25.634;2023-05-07T01:23:21;10.25;;;5.57;;
34711;SDS011;20941;42.408;25.634;2023-05-07T01:25:54;9.38;;;5.65;;
34711;SDS011;20941;42.408;25.634;2023-05-07T01:28:19;13.05;;;6.10;;
34711;SDS011;20941;42.408;25.634;2023-05-07T01:30:46;8.40;;;4.95;;
34711;SDS011;20941;42.408;25.634;2023-05-07T01:33:13;12.05;;;5.50;;
34711;SDS011;20941;42.408;25.634;2023-05-07T01:35:40;11.65;;;5.25;;
34711;SDS011;20941;42.408;25.634;2023-05-07T01:38:06;10.70;;;5.93;;
34711;SDS011;20941;42.408;25.634;2023-05-07T01:40:33;13.27;;;6.85;;
34711;SDS011;20941;42.408;25.634;2023-05-07T01:42:59;16.20;;;5.93;;
34711;SDS011;20941;42.408;25.634;2023-05-07T01:45:25;11.40;;;5.95;;
34711;SDS011;20941;42.408;25.634;2023-05-07T01:47:50;11.88;;;6.10;;
34711;SDS011;20941;42.408;25.634;2023-05-07T01:50:17;14.90;;;6.28;;
34711;SDS011;20941;42.408;25.634;2023-05-07T01:52:43;9.85;;;6.22;;
34711;SDS011;20941;42.408;25.634;2023-05-07T01:55:08;11.13;;;6.53;;
34711;SDS011;20941;42.408;25.634;2023-05-07T01:57:34;9.57;;;6.00;;
34711;SDS011;20941;42.408;25.634;2023-05-07T01:59:59;8.20;;;6.22;;
34711;SDS011;20941;42.408;25.634;2023-05-07T02:02:25;10.30;;;6.10;;
34711;SDS011;20941;42.408;25.634;2023-05-07T02:04:50;10.07;;;6.35;;
34711;SDS011;20941;42.408;25.634;2023-05-07T02:07:15;7.47;;;6.03;;
34711;SDS011;20941;42.408;25.634;2023-05-07T02:09:41;7.55;;;5.95;;
34711;SDS011;20941;42.408;25.634;2023-05-07T02:12:06;8.95;;;6.43;;
34711;SDS011;20941;42.408;25.634;2023-05-07T02:14:31;11.25;;;6.60;;
34711;SDS011;20941;42.408;25.634;2023-05-07T02:16:57;10.30;;;6.15;;
34711;SDS011;20941;42.408;25.634;2023-05-07T02:19:22;8.60;;;6.35;;
34711;SDS011;20941;42.408;25.634;2023-05-07T02:21:47;12.00;;;6.70;;
34711;SDS011;20941;42.408;25.634;2023-05-07T02:24:14;10.30;;;6.18;;
34711;SDS011;20941;42.408;25.634;2023-05-07T02:26:40;13.73;;;6.90;;
34711;SDS011;20941;42.408;25.634;2023-05-07T02:29:06;10.40;;;6.68;;
34711;SDS011;20941;42.408;25.634;2023-05-07T02:31:33;11.70;;;7.03;;
34711;SDS011;20941;42.408;25.634;2023-05-07T02:33:59;8.75;;;6.30;;
34711;SDS011;20941;42.408;25.634;2023-05-07T02:36:25;11.80;;;6.88;;
34711;SDS011;20941;42.408;25.634;2023-05-07T02:38:51;10.30;;;6.53;;
34711;SDS011;20941;42.408;25.634;2023-05-07T02:41:17;9.63;;;6.63;;
34711;SDS011;20941;42.408;25.634;2023-05-07T02:43:42;15.70;;;7.35;;
34711;SDS011;20941;42.408;25.634;2023-05-07T02:46:08;15.63;;;7.57;;
34711;SDS011;20941;42.408;25.634;2023-05-07T02:48:34;14.52;;;7.30;;
34711;SDS011;20941;42.408;25.634;2023-05-07T02:51:00;15.27;;;7.80;;
34711;SDS011;20941;42.408;25.634;2023-05-07T02:53:25;10.35;;;7.43;;
34711;SDS011;20941;42.408;25.634;2023-05-07T02:55:54;12.60;;;7.47;;
34711;SDS011;20941;42.408;25.634;2023-05-07T02:58:20;16.48;;;7.85;;
34711;SDS011;20941;42.408;25.634;2023-05-07T03:00:45;12.73;;;7.75;;
34711;SDS011;20941;42.408;25.634;2023-05-07T03:03:11;10.50;;;6.80;;
34711;SDS011;20941;42.408;25.634;2023-05-07T03:05:36;15.38;;;8.05;;
34711;SDS011;20941;42.408;25.634;2023-05-07T03:08:02;16.45;;;8.13;;
34711;SDS011;20941;42.408;25.634;2023-05-07T03:10:28;13.27;;;7.68;;
34711;SDS011;20941;42.408;25.634;2023-05-07T03:12:54;12.85;;;7.70;;
34711;SDS011;20941;42.408;25.634;2023-05-07T03:15:19;15.32;;;8.23;;
34711;SDS011;20941;42.408;25.634;2023-05-07T03:17:45;18.45;;;8.18;;
34711;SDS011;20941;42.408;25.634;2023-05-07T03:20:10;15.65;;;8.35;;
34711;SDS011;20941;42.408;25.634;2023-05-07T03:22:36;18.42;;;8.23;;
34711;SDS011;20941;42.408;25.634;2023-05-07T03:25:01;16.48;;;7.85;;
34711;SDS011;20941;42.408;25.634;2023-05-07T03:27:27;13.30;;;8.00;;
34711;SDS011;20941;42.408;25.634;2023-05-07T03:29:52;12.40;;;7.68;;
34711;SDS011;20941;42.408;25.634;2023-05-07T03:32:17;18.40;;;7.55;;
34711;SDS011;20941;42.408;25.634;2023-05-07T03:34:43;8.52;;;6.78;;
34711;SDS011;20941;42.408;25.634;2023-05-07T03:37:08;13.38;;;6.35;;
34711;SDS011;20941;42.408;25.634;2023-05-07T03:39:33;10.80;;;6.35;;
34711;SDS011;20941;42.408;25.634;2023-05-07T03:41:59;14.38;;;6.82;;
34711;SDS011;20941;42.408;25.634;2023-05-07T03:44:24;10.85;;;6.50;;
34711;SDS011;20941;42.408;25.634;2023-05-07T03:46:50;14.95;;;6.45;;
34711;SDS011;20941;42.408;25.634;2023-05-07T03:49:15;11.57;;;6.20;;
34711;SDS011;20941;42.408;25.634;2023-05-07T03:51:40;12.27;;;6.38;;
34711;SDS011;20941;42.408;25.634;2023-05-07T03:54:07;13.02;;;7.35;;
34711;SDS011;20941;42.408;25.634;2023-05-07T03:56:33;13.38;;;5.78;;
34711;SDS011;20941;42.408;25.634;2023-05-07T03:58:59;7.93;;;5.05;;
34711;SDS011;20941;42.408;25.634;2023-05-07T04:01:25;14.70;;;5.40;;
34711;SDS011;20941;42.408;25.634;2023-05-07T04:03:50;9.07;;;5.38;;
34711;SDS011;20941;42.408;25.634;2023-05-07T04:06:16;13.23;;;5.80;;
34711;SDS011;20941;42.408;25.634;2023-05-07T04:08:42;9.82;;;5.38;;
34711;SDS011;20941;42.408;25.634;2023-05-07T04:11:07;11.55;;;5.50;;
34711;SDS011;20941;42.408;25.634;2023-05-07T04:13:33;8.68;;;5.40;;
34711;SDS011;20941;42.408;25.634;2023-05-07T04:15:58;10.82;;;5.57;;
34711;SDS011;20941;42.408;25.634;2023-05-07T04:18:25;10.98;;;5.30;;
34711;SDS011;20941;42.408;25.634;2023-05-07T04:20:50;9.18;;;5.05;;
34711;SDS011;20941;42.408;25.634;2023-05-07T04:23:16;9.00;;;4.88;;
34711;SDS011;20941;42.408;25.634;2023-05-07T04:25:41;8.38;;;5.00;;
34711;SDS011;20941;42.408;25.634;2023-05-07T04:28:06;9.70;;;5.47;;
34711;SDS011;20941;42.408;25.634;2023-05-07T04:30:32;10.90;;;5.20;;
34711;SDS011;20941;42.408;25.634;2023-05-07T04:32:57;10.57;;;5.43;;
34711;SDS011;20941;42.408;25.634;2023-05-07T04:35:22;8.40;;;5.30;;
34711;SDS011;20941;42.408;25.634;2023-05-07T04:37:48;12.48;;;5.43;;
34711;SDS011;20941;42.408;25.634;2023-05-07T04:40:13;10.10;;;6.38;;
34711;SDS011;20941;42.408;25.634;2023-05-07T04:42:39;10.82;;;5.88;;
34711;SDS011;20941;42.408;25.634;2023-05-07T04:45:04;9.73;;;6.13;;
34711;SDS011;20941;42.408;25.634;2023-05-07T04:47:30;12.43;;;7.10;;
34711;SDS011;20941;42.408;25.634;2023-05-07T04:49:56;10.55;;;6.35;;
34711;SDS011;20941;42.408;25.634;2023-05-07T04:52:22;9.38;;;7.10;;
34711;SDS011;20941;42.408;25.634;2023-05-07T04:54:47;12.32;;;6.63;;
34711;SDS011;20941;42.408;25.634;2023-05-07T04:57:14;12.63;;;6.50;;
34711;SDS011;20941;42.408;25.634;2023-05-07T04:59:39;14.23;;;7.70;;
34711;SDS011;20941;42.408;25.634;2023-05-07T05:02:04;10.70;;;6.63;;
34711;SDS011;20941;42.408;25.634;2023-05-07T05:04:30;8.77;;;6.15;;
34711;SDS011;20941;42.408;25.634;2023-05-07T05:06:55;10.27;;;6.10;;
34711;SDS011;20941;42.408;25.634;2023-05-07T05:09:21;7.45;;;6.20;;
34711;SDS011;20941;42.408;25.634;2023-05-07T05:11:46;8.57;;;6.10;;
34711;SDS011;20941;42.408;25.634;2023-05-07T05:14:12;12.18;;;5.53;;
34711;SDS011;20941;42.408;25.634;2023-05-07T05:16:37;10.05;;;5.95;;
34711;SDS011;20941;42.408;25.634;2023-05-07T05:19:03;11.55;;;5.82;;
34711;SDS011;20941;42.408;25.634;2023-05-07T05:21:28;9.75;;;5.40;;
34711;SDS011;20941;42.408;25.634;2023-05-07T05:23:53;9.20;;;5.78;;
34711;SDS011;20941;42.408;25.634;2023-05-07T05:26:19;9.23;;;5.30;;
34711;SDS011;20941;42.408;25.634;2023-05-07T05:28:46;10.55;;;6.07;;
34711;SDS011;20941;42.408;25.634;2023-05-07T05:31:11;8.23;;;5.20;;
34711;SDS011;20941;42.408;25.634;2023-05-07T05:33:36;13.40;;;4.97;;
34711;SDS011;20941;42.408;25.634;2023-05-07T05:36:02;7.22;;;4.38;;
34711;SDS011;20941;42.408;25.634;2023-05-07T05:38:27;9.15;;;3.90;;
34711;SDS011;20941;42.408;25.634;2023-05-07T05:40:53;8.88;;;3.90;;
34711;SDS011;20941;42.408;25.634;2023-05-07T05:43:18;9.20;;;3.75;;
34711;SDS011;20941;42.408;25.634;2023-05-07T05:45:43;9.50;;;4.30;;
34711;SDS011;20941;42.408;25.634;2023-05-07T05:48:09;9.43;;;4.72;;
34711;SDS011;20941;42.408;25.634;2023-05-07T05:50:34;10.57;;;5.25;;
34711;SDS011;20941;42.408;25.634;2023-05-07T05:53:02;5.38;;;4.32;;
34711;SDS011;20941;42.408;25.634;2023-05-07T05:55:28;4.45;;;3.97;;
34711;SDS011;20941;42.408;25.634;2023-05-07T05:57:53;8.65;;;4.88;;
34711;SDS011;20941;42.408;25.634;2023-05-07T06:00:19;6.13;;;4.40;;
34711;SDS011;20941;42.408;25.634;2023-05-07T06:02:47;6.30;;;4.03;;
34711;SDS011;20941;42.408;25.634;2023-05-07T06:05:12;6.70;;;4.00;;
34711;SDS011;20941;42.408;25.634;2023-05-07T06:07:38;8.32;;;4.53;;
34711;SDS011;20941;42.408;25.634;2023-05-07T06:10:03;5.95;;;4.45;;
34711;SDS011;20941;42.408;25.634;2023-05-07T06:12:29;6.40;;;4.20;;
34711;SDS011;20941;42.408;25.634;2023-05-07T06:14:54;4.55;;;3.80;;
34711;SDS011;20941;42.408;25.634;2023-05-07T06:17:19;4.78;;;3.85;;
34711;SDS011;20941;42.408;25.634;2023-05-07T06:19:45;4.30;;;3.65;;
34711;SDS011;20941;42.408;25.634;2023-05-07T06:22:10;6.60;;;3.85;;
34711;SDS011;20941;42.408;25.634;2023-05-07T06:24:36;7.20;;;4.05;;
34711;SDS011;20941;42.408;25.634;2023-05-07T06:27:01;12.43;;;4.28;;
34711;SDS011;20941;42.408;25.634;2023-05-07T06:29:29;9.02;;;3.92;;
34711;SDS011;20941;42.408;25.634;2023-05-07T06:32:05;6.85;;;3.95;;
34711;SDS011;20941;42.408;25.634;2023-05-07T06:34:31;6.80;;;3.63;;
34711;SDS011;20941;42.408;25.634;2023-05-07T06:36:56;6.10;;;3.80;;
34711;SDS011;20941;42.408;25.634;2023-05-07T06:39:22;8.02;;;3.97;;
34711;SDS011;20941;42.408;25.634;2023-05-07T06:41:47;5.68;;;3.03;;
34711;SDS011;20941;42.408;25.634;2023-05-07T06:44:12;4.70;;;3.22;;
34711;SDS011;20941;42.408;25.634;2023-05-07T06:46:38;4.40;;;3.25;;
34711;SDS011;20941;42.408;25.634;2023-05-07T06:49:03;4.30;;;3.13;;
34711;SDS011;20941;42.408;25.634;2023-05-07T06:51:28;5.75;;;2.88;;
34711;SDS011;20941;42.408;25.634;2023-05-07T06:53:54;3.15;;;2.85;;
34711;SDS011;20941;42.408;25.634;2023-05-07T06:56:19;5.15;;;2.83;;
34711;SDS011;20941;42.408;25.634;2023-05-07T06:58:45;4.55;;;2.45;;
34711;SDS011;20941;42.408;25.634;2023-05-07T07:01:10;5.43;;;2.40;;
34711;SDS011;20941;42.408;25.634;2023-05-07T07:03:35;7.15;;;2.90;;
34711;SDS011;20941;42.408;25.634;2023-05-07T07:06:01;4.82;;;2.17;;
34711;SDS011;20941;42.408;25.634;2023-05-07T07:08:27;3.10;;;2.17;;
34711;SDS011;20941;42.408;25.634;2023-05-07T07:10:52;3.42;;;1.80;;
34711;SDS011;20941;42.408;25.634;2023-05-07T07:13:17;3.63;;;2.42;;
34711;SDS011;20941;42.408;25.634;2023-05-07T07:15:43;4.43;;;2.03;;
34711;SDS011;20941;42.408;25.634;2023-05-07T07:18:08;3.17;;;2.25;;
34711;SDS011;20941;42.408;25.634;2023-05-07T07:20:33;2.90;;;2.10;;
34711;SDS011;20941;42.408;25.634;2023-05-07T07:22:59;6.82;;;2.13;;
34711;SDS011;20941;42.408;25.634;2023-05-07T07:25:26;6.47;;;2.10;;
34711;SDS011;20941;42.408;25.634;2023-05-07T07:27:52;2.47;;;1.67;;
34711;SDS011;20941;42.408;25.634;2023-05-07T07:30:17;3.08;;;1.83;;
34711;SDS011;20941;42.408;25.634;2023-05-07T07:32:43;3.67;;;1.95;;
34711;SDS011;20941;42.408;25.634;2023-05-07T07:35:08;2.65;;;1.75;;
34711;SDS011;20941;42.408;25.634;2023-05-07T07:37:34;3.08;;;1.90;;
34711;SDS011;20941;42.408;25.634;2023-05-07T07:39:59;5.47;;;1.92;;
34711;SDS011;20941;42.408;25.634;2023-05-07T07:42:24;3.72;;;1.85;;
34711;SDS011;20941;42.408;25.634;2023-05-07T07:44:50;5.10;;;2.08;;
34711;SDS011;20941;42.408;25.634;2023-05-07T07:47:15;3.33;;;2.15;;
34711;SDS011;20941;42.408;25.634;2023-05-07T07:49:41;2.83;;;1.70;;
34711;SDS011;20941;42.408;25.634;2023-05-07T07:52:06;3.47;;;1.80;;
34711;SDS011;20941;42.408;25.634;2023-05-07T07:54:31;2.53;;;1.70;;
34711;SDS011;20941;42.408;25.634;2023-05-07T07:56:57;3.80;;;1.90;;
34711;SDS011;20941;42.408;25.634;2023-05-07T07:59:22;3.85;;;1.90;;
34711;SDS011;20941;42.408;25.634;2023-05-07T08:01:48;2.67;;;1.52;;
34711;SDS011;20941;42.408;25.634;2023-05-07T08:04:15;2.70;;;1.50;;
34711;SDS011;20941;42.408;25.634;2023-05-07T08:06:40;2.25;;;1.40;;
34711;SDS011;20941;42.408;25.634;2023-05-07T08:09:05;3.13;;;1.50;;
34711;SDS011;20941;42.408;25.634;2023-05-07T08:11:31;5.88;;;1.33;;
34711;SDS011;20941;42.408;25.634;2023-05-07T08:13:56;1.88;;;1.33;;
34711;SDS011;20941;42.408;25.634;2023-05-07T08:16:22;3.97;;;1.60;;
34711;SDS011;20941;42.408;25.634;2023-05-07T08:18:48;2.28;;;1.20;;
34711;SDS011;20941;42.408;25.634;2023-05-07T08:21:14;3.42;;;1.60;;
34711;SDS011;20941;42.408;25.634;2023-05-07T08:23:39;4.35;;;1.60;;
34711;SDS011;20941;42.408;25.634;2023-05-07T08:26:05;1.63;;;1.52;;
34711;SDS011;20941;42.408;25.634;2023-05-07T08:28:30;2.97;;;1.50;;
34711;SDS011;20941;42.408;25.634;2023-05-07T08:30:55;4.55;;;1.55;;
34711;SDS011;20941;42.408;25.634;2023-05-07T08:33:26;3.38;;;1.67;;
34711;SDS011;20941;42.408;25.634;2023-05-07T08:35:51;1.83;;;1.50;;
34711;SDS011;20941;42.408;25.634;2023-05-07T08:38:16;1.88;;;1.20;;
34711;SDS011;20941;42.408;25.634;2023-05-07T08:40:42;4.57;;;1.45;;
34711;SDS011;20941;42.408;25.634;2023-05-07T08:43:07;4.72;;;1.50;;
34711;SDS011;20941;42.408;25.634;2023-05-07T08:45:33;1.50;;;1.35;;
34711;SDS011;20941;42.408;25.634;2023-05-07T08:47:59;3.03;;;1.38;;
34711;SDS011;20941;42.408;25.634;2023-05-07T08:50:25;5.05;;;1.33;;
34711;SDS011;20941;42.408;25.634;2023-05-07T08:52:50;2.03;;;1.40;;
34711;SDS011;20941;42.408;25.634;2023-05-07T08:55:16;2.40;;;1.25;;
34711;SDS011;20941;42.408;25.634;2023-05-07T08:57:42;4.93;;;1.30;;
34711;SDS011;20941;42.408;25.634;2023-05-07T09:00:07;2.90;;;1.27;;
34711;SDS011;20941;42.408;25.634;2023-05-07T09:02:34;5.00;;;1.60;;
34711;SDS011;20941;42.408;25.634;2023-05-07T09:05:00;7.90;;;1.60;;
34711;SDS011;20941;42.408;25.634;2023-05-07T09:07:25;2.40;;;1.35;;
34711;SDS011;20941;42.408;25.634;2023-05-07T09:09:53;4.68;;;1.45;;
34711;SDS011;20941;42.408;25.634;2023-05-07T09:12:20;3.90;;;1.35;;
34711;SDS011;20941;42.408;25.634;2023-05-07T09:14:46;1.88;;;1.30;;
34711;SDS011;20941;42.408;25.634;2023-05-07T09:17:12;6.25;;;1.70;;
34711;SDS011;20941;42.408;25.634;2023-05-07T09:19:37;3.22;;;1.38;;
34711;SDS011;20941;42.408;25.634;2023-05-07T09:22:03;4.18;;;1.50;;
34711;SDS011;20941;42.408;25.634;2023-05-07T09:24:29;2.75;;;1.45;;
34711;SDS011;20941;42.408;25.634;2023-05-07T09:26:58;3.10;;;1.30;;
34711;SDS011;20941;42.408;25.634;2023-05-07T09:29:25;3.40;;;1.30;;
34711;SDS011;20941;42.408;25.634;2023-05-07T09:31:50;2.72;;;1.42;;
34711;SDS011;20941;42.408;25.634;2023-05-07T09:34:16;4.97;;;1.63;;
34711;SDS011;20941;42.408;25.634;2023-05-07T09:36:41;2.97;;;1.40;;
34711;SDS011;20941;42.408;25.634;2023-05-07T09:39:07;5.63;;;1.40;;
34711;SDS011;20941;42.408;25.634;2023-05-07T09:41:32;4.32;;;1.55;;
34711;SDS011;20941;42.408;25.634;2023-05-07T09:43:57;4.07;;;1.63;;
34711;SDS011;20941;42.408;25.634;2023-05-07T09:46:27;2.22;;;1.67;;
34711;SDS011;20941;42.408;25.634;2023-05-07T09:48:56;1.50;;;1.35;;
34711;SDS011;20941;42.408;25.634;2023-05-07T09:51:25;4.47;;;1.40;;
34711;SDS011;20941;42.408;25.634;2023-05-07T09:53:53;1.90;;;1.50;;
34711;SDS011;20941;42.408;25.634;2023-05-07T09:56:19;3.70;;;1.40;;
34711;SDS011;20941;42.408;25.634;2023-05-07T09:58:46;2.90;;;1.50;;
34711;SDS011;20941;42.408;25.634;2023-05-07T10:01:12;4.00;;;2.80;;
34711;SDS011;20941;42.408;25.634;2023-05-07T10:03:37;1.42;;;1.33;;
34711;SDS011;20941;42.408;25.634;2023-05-07T10:06:04;3.53;;;1.52;;
34711;SDS011;20941;42.408;25.634;2023-05-07T10:08:30;2.95;;;1.50;;
34711;SDS011;20941;42.408;25.634;2023-05-07T10:10:55;6.28;;;1.88;;
34711;SDS011;20941;42.408;25.634;2023-05-07T10:13:21;2.35;;;1.38;;
34711;SDS011;20941;42.408;25.634;2023-05-07T10:15:46;5.70;;;1.35;;
34711;SDS011;20941;42.408;25.634;2023-05-07T10:18:12;3.38;;;1.48;;
34711;SDS011;20941;42.408;25.634;2023-05-07T10:20:40;3.20;;;1.40;;
34711;SDS011;20941;42.408;25.634;2023-05-07T10:23:06;2.17;;;1.60;;
34711;SDS011;20941;42.408;25.634;2023-05-07T10:25:33;3.92;;;1.60;;
34711;SDS011;20941;42.408;25.634;2023-05-07T10:28:03;4.63;;;1.35;;
34711;SDS011;20941;42.408;25.634;2023-05-07T10:32:56;1.83;;;1.40;;
34711;SDS011;20941;42.408;25.634;2023-05-07T10:35:24;2.92;;;1.73;;
34711;SDS011;20941;42.408;25.634;2023-05-07T10:37:50;4.35;;;1.70;;
34711;SDS011;20941;42.408;25.634;2023-05-07T10:40:16;1.70;;;1.40;;
34711;SDS011;20941;42.408;25.634;2023-05-07T10:42:58;4.95;;;1.10;;
34711;SDS011;20941;42.408;25.634;2023-05-07T10:45:27;2.03;;;1.05;;
34711;SDS011;20941;42.408;25.634;2023-05-07T10:48:06;3.17;;;1.67;;
34711;SDS011;20941;42.408;25.634;2023-05-07T10:50:32;2.47;;;1.52;;
34711;SDS011;20941;42.408;25.634;2023-05-07T10:55:41;3.67;;;1.58;;
34711;SDS011;20941;42.408;25.634;2023-05-07T11:00:47;4.35;;;1.60;;
34711;SDS011;20941;42.408;25.634;2023-05-07T11:03:13;2.20;;;1.48;;
34711;SDS011;20941;42.408;25.634;2023-05-07T11:05:40;2.47;;;1.55;;
34711;SDS011;20941;42.408;25.634;2023-05-07T11:08:06;1.67;;;1.30;;
34711;SDS011;20941;42.408;25.634;2023-05-07T11:10:49;3.60;;;1.55;;
34711;SDS011;20941;42.408;25.634;2023-05-07T11:13:15;1.50;;;1.40;;
34711;SDS011;20941;42.408;25.634;2023-05-07T11:15:50;3.15;;;1.50;;
34711;SDS011;20941;42.408;25.634;2023-05-07T11:18:16;3.70;;;2.00;;
34711;SDS011;20941;42.408;25.634;2023-05-07T11:26:06;2.03;;;1.27;;
34711;SDS011;20941;42.408;25.634;2023-05-07T11:28:36;6.60;;;1.80;;
34711;SDS011;20941;42.408;25.634;2023-05-07T11:31:02;4.78;;;1.83;;
34711;SDS011;20941;42.408;25.634;2023-05-07T11:33:28;5.13;;;1.38;;
34711;SDS011;20941;42.408;25.634;2023-05-07T11:35:54;3.72;;;1.77;;
34711;SDS011;20941;42.408;25.634;2023-05-07T11:38:19;2.30;;;1.60;;
34711;SDS011;20941;42.408;25.634;2023-05-07T11:40:51;4.05;;;1.73;;
34711;SDS011;20941;42.408;25.634;2023-05-07T11:43:18;3.08;;;1.83;;
34711;SDS011;20941;42.408;25.634;2023-05-07T11:45:44;3.67;;;1.55;;
34711;SDS011;20941;42.408;25.634;2023-05-07T11:48:09;2.13;;;1.25;;
34711;SDS011;20941;42.408;25.634;2023-05-07T11:50:35;2.88;;;1.48;;
34711;SDS011;20941;42.408;25.634;2023-05-07T11:53:00;4.25;;;1.80;;
34711;SDS011;20941;42.408;25.634;2023-05-07T11:55:25;4.63;;;1.77;;
34711;SDS011;20941;42.408;25.634;2023-05-07T11:57:51;2.53;;;1.92;;
34711;SDS011;20941;42.408;25.634;2023-05-07T12:00:17;5.13;;;1.65;;
34711;SDS011;20941;42.408;25.634;2023-05-07T12:02:43;4.35;;;1.60;;
34711;SDS011;20941;42.408;25.634;2023-05-07T12:05:10;3.05;;;1.52;;
34711;SDS011;20941;42.408;25.634;2023-05-07T12:07:35;4.35;;;1.80;;
34711;SDS011;20941;42.408;25.634;2023-05-07T12:10:04;1.48;;;1.38;;
34711;SDS011;20941;42.408;25.634;2023-05-07T12:12:29;2.05;;;1.58;;
34711;SDS011;20941;42.408;25.634;2023-05-07T12:14:55;5.60;;;4.03;;
34711;SDS011;20941;42.408;25.634;2023-05-07T12:17:20;2.20;;;1.33;;
34711;SDS011;20941;42.408;25.634;2023-05-07T12:19:46;4.38;;;1.67;;
34711;SDS011;20941;42.408;25.634;2023-05-07T12:22:12;2.20;;;1.50;;
34711;SDS011;20941;42.408;25.634;2023-05-07T12:24:47;3.53;;;1.70;;
34711;SDS011;20941;42.408;25.634;2023-05-07T12:27:16;3.35;;;1.50;;
34711;SDS011;20941;42.408;25.634;2023-05-07T12:29:48;2.67;;;1.65;;
34711;SDS011;20941;42.408;25.634;2023-05-07T12:32:18;4.47;;;1.50;;
34711;SDS011;20941;42.408;25.634;2023-05-07T12:34:43;2.65;;;1.38;;
34711;SDS011;20941;42.408;25.634;2023-05-07T12:37:09;1.65;;;1.40;;
34711;SDS011;20941;42.408;25.634;2023-05-07T12:39:35;1.42;;;1.33;;
34711;SDS011;20941;42.408;25.634;2023-05-07T12:42:00;4.07;;;1.85;;
34711;SDS011;20941;42.408;25.634;2023-05-07T12:44:30;1.88;;;1.50;;
34711;SDS011;20941;42.408;25.634;2023-05-07T12:46:55;4.55;;;1.65;;
34711;SDS011;20941;42.408;25.634;2023-05-07T12:49:21;2.53;;;1.75;;
34711;SDS011;20941;42.408;25.634;2023-05-07T12:51:47;4.72;;;1.35;;
34711;SDS011;20941;42.408;25.634;2023-05-07T12:54:13;2.45;;;1.50;;
34711;SDS011;20941;42.408;25.634;2023-05-07T12:56:39;1.45;;;1.35;;
34711;SDS011;20941;42.408;25.634;2023-05-07T12:59:04;3.80;;;1.70;;
34711;SDS011;20941;42.408;25.634;2023-05-07T13:01:30;5.45;;;1.65;;
34711;SDS011;20941;42.408;25.634;2023-05-07T13:03:57;2.90;;;1.50;;
34711;SDS011;20941;42.408;25.634;2023-05-07T13:06:25;4.57;;;1.35;;
34711;SDS011;20941;42.408;25.634;2023-05-07T13:08:51;2.42;;;1.40;;
34711;SDS011;20941;42.408;25.634;2023-05-07T13:11:16;2.45;;;1.50;;
34711;SDS011;20941;42.408;25.634;2023-05-07T13:13:41;2.25;;;1.40;;
34711;SDS011;20941;42.408;25.634;2023-05-07T13:16:08;3.78;;;1.60;;
34711;SDS011;20941;42.408;25.634;2023-05-07T13:18:33;5.72;;;1.92;;
34711;SDS011;20941;42.408;25.634;2023-05-07T13:21:00;2.38;;;1.92;;
34711;SDS011;20941;42.408;25.634;2023-05-07T13:23:25;4.55;;;1.80;;
34711;SDS011;20941;42.408;25.634;2023-05-07T13:25:51;3.78;;;1.40;;
34711;SDS011;20941;42.408;25.634;2023-05-07T13:28:19;1.60;;;1.45;;
34711;SDS011;20941;42.408;25.634;2023-05-07T13:30:46;2.42;;;1.73;;
34711;SDS011;20941;42.408;25.634;2023-05-07T13:33:12;1.70;;;1.40;;
34711;SDS011;20941;42.408;25.634;2023-05-07T13:35:37;2.65;;;1.50;;
34711;SDS011;20941;42.408;25.634;2023-05-07T13:38:02;3.60;;;1.75;;
34711;SDS011;20941;42.408;25.634;2023-05-07T13:40:28;3.10;;;1.45;;
34711;SDS011;20941;42.408;25.634;2023-05-07T13:42:53;5.15;;;1.60;;
34711;SDS011;20941;42.408;25.634;2023-05-07T13:45:19;1.58;;;1.40;;
34711;SDS011;20941;42.408;25.634;2023-05-07T13:47:45;2.45;;;1.40;;
34711;SDS011;20941;42.408;25.634;2023-05-07T13:50:10;1.90;;;1.17;;
34711;SDS011;20941;42.408;25.634;2023-05-07T13:52:40;2.30;;;1.40;;
34711;SDS011;20941;42.408;25.634;2023-05-07T13:55:06;2.67;;;1.88;;
34711;SDS011;20941;42.408;25.634;2023-05-07T13:57:31;6.22;;;1.70;;
34711;SDS011;20941;42.408;25.634;2023-05-07T13:59:57;4.30;;;1.92;;
34711;SDS011;20941;42.408;25.634;2023-05-07T14:02:22;3.35;;;1.48;;
34711;SDS011;20941;42.408;25.634;2023-05-07T14:04:47;3.50;;;1.50;;
34711;SDS011;20941;42.408;25.634;2023-05-07T14:07:13;2.63;;;1.40;;
34711;SDS011;20941;42.408;25.634;2023-05-07T14:09:38;1.77;;;0.98;;
34711;SDS011;20941;42.408;25.634;2023-05-07T14:12:03;5.53;;;1.13;;
34711;SDS011;20941;42.408;25.634;2023-05-07T14:14:29;1.98;;;1.30;;
34711;SDS011;20941;42.408;25.634;2023-05-07T14:16:55;2.15;;;1.27;;
34711;SDS011;20941;42.408;25.634;2023-05-07T14:19:20;2.45;;;1.20;;
34711;SDS011;20941;42.408;25.634;2023-05-07T14:21:47;3.22;;;1.30;;
34711;SDS011;20941;42.408;25.634;2023-05-07T14:24:13;2.40;;;1.30;;
34711;SDS011;20941;42.408;25.634;2023-05-07T14:26:38;3.40;;;1.25;;
34711;SDS011;20941;42.408;25.634;2023-05-07T14:29:03;2.67;;;1.10;;
34711;SDS011;20941;42.408;25.634;2023-05-07T14:31:29;1.40;;;1.00;;
34711;SDS011;20941;42.408;25.634;2023-05-07T14:33:54;1.67;;;1.20;;
34711;SDS011;20941;42.408;25.634;2023-05-07T14:36:20;3.05;;;1.13;;